AirNav   Everest Fuels
 
 1132 users online  

78II Fox Station Airport
La Fontaine, Indiana, USA

GOING TO LA FONTAINE?


FAA INFORMATION EFFECTIVE 26 JANUARY 2023

Location

FAA Identifier: 78II
Lat/Long: 40-38-10.1490N 085-41-16.9250W
40-38.169150N 085-41.282083W
40.6361525,-85.6880347
(estimated)
Elevation: 835 ft. / 255 m (estimated)
Variation: 03W (1990)
From city: 3 miles SE of LA FONTAINE, IN
Time zone: UTC -5 (UTC -4 during Daylight Saving Time)
Zip code: 46952

Airport Operations

Airport use: Private use. Permission required prior to landing
Activation date: 03/1994
Control tower: no
ARTCC: CHICAGO CENTER
FSS: TERRE HAUTE FLIGHT SERVICE STATION
Attendance: UNATNDD
Segmented circle: no

Airport Communications

WX AWOS-3 at MZZ (9 nm S): 108.6 (765-674-1317)
WX AWOS-3PT at HHG (17 nm NE): 126.575 (260-454-1927)
WX AWOS-3PT at OKK (18 nm W): 128.675 (765-452-3014)

Nearby radio navigation aids

VOR radial/distance  VOR name  Freq  Var
MZZr000/8.6MARION VOR/DME108.6003W
OKKr074/18.1KOKOMO VORTAC113.5005W
GUSr093/21.1GRISSOM VORTAC108.4502W
MIEr334/27.4MUNCIE VOR/DME114.4003W
FWAr234/30.6FORT WAYNE VORTAC117.8006W
OLKr196/(37.7)WEBSTER LAKE VOR110.4003W

Airport Services

Runway Information

Runway 9/27

Dimensions: 1850 x 100 ft. / 564 x 30 m
Surface: turf
RUNWAY 9  RUNWAY 27
Traffic pattern: leftleft
Obstructions: none40 ft. trees, 850 ft. from runway

Airport Ownership and Management from official FAA records

Ownership: Privately-owned
Owner: MICHAEL SHAFFER
5747 RED FOX DRIVE
MARION, IN 46952
Phone 810-614-4869
Manager: MICHAEL SHAFFER
5747 RED FOX DRIVE
MARION, IN 46952
Phone 810-614-4869

Additional Remarks

FOR CD CTC CHICAGO ARTCC AT 630-906-8921.

Instrument Procedures

There are no published instrument procedures at 78II.

Some nearby airports with instrument procedures:

KMZZ - Marion Municipal Airport - McKinney Field (9 nm S)
KIWH - Wabash Municipal Airport (9 nm NW)
KHHG - Huntington Municipal Airport (17 nm NE)
KOKK - Kokomo Municipal Airport (18 nm W)
KGUS - Grissom Air Reserve Base (21 nm W)
 
Loc | Ops | Rwys | IFR | FBO | Links
Com | Nav | Svcs | Stats | Notes
Area around 78II (Fox Station Airport)
 
Road maps at: MapQuest Bing Google
 
Aerial photo
No photo
 
Sectional chart

 
Airport distance calculator
Flying to Fox Station Airport? Find the distance to fly.

From to 78II

Sunrise and sunset
Times for 08-Feb-2023
 Local
(UTC-5)
 Zulu
(UTC)
Morning civil twilight07:1812:18
Sunrise07:4612:46
Sunset18:0823:08
Evening civil twilight18:3623:36

Current date and time
Zulu (UTC)  09-Feb-2023 02:10:57
Local (UTC-5)  08-Feb-2023 21:10:57
 
METAR
KMZZ 
9nm S 
090155Z AUTO 11007KT 7SM -RA SCT049 BKN060 OVC075 05/03 A3012 RMK AO2 P0003 T00470027
KHHG 
17nm NE 
090155Z AUTO 09005KT 10SM DZ OVC070 04/01 A3013 RMK AO2 T00410008
KOKK 
18nm W 
090156Z AUTO 10007KT 6SM -RA BR FEW035 BKN044 OVC075 04/04 A3011 RMK AO2 SLP203 T00440044 PNO $
TAF
KGUS 
21nm W 
082100Z 0821/1003 VRB06KT 9999 SCT180 QNH3002INS BECMG 0903/0904 09012G18KT 6000 -SHRA OVC005 QNH2987INS BECMG 0906/0907 16015G25KT 4800 SHRA OVC005 QNH2953INS TEMPO 0911/0915 4800 -TSRA OVC015CB BECMG 0914/0915 19025G35KT 9999 VCSH OVC020 520005 QNH2954INS BECMG 0918/0919 21025G35KT 9999 NSW OVC020 650208 520005 QNH2954INS TEMPO 0919/0923 24040G50KT 530005 BECMG 0923/0924 27025G35KT 9999 BKN015 OVC030 650208 520005 QNH2976INS TX14/0914Z TN03/0903Z LAST NO AMDS AFT 0904 NEXT 0913
NOTAMs
Click for the latest NOTAMs
NOTAMs are issued by the DoD/FAA and will open in a separate window not controlled by AirNav.

 

 
 

Would you like to see your business listed on this page?

 If your business provides an interesting product or service to pilots, flight crews, aircraft, or users of the Fox Station Airport, you should consider listing it here.  To start the listing process, click on the button below
 
Add a business
 

Other Pages about Fox Station Airport

Update a link
 
Copyright © AirNav, LLC. All rights reserved. Privacy Policy  Contact